Airfield :
LOGIN :

Register | Disclaimer

   EN    FR    IT 

 










Legend :    VFR   Marginal VFR   IFR   Intensive IFR   Very Intensive IFR
Visi :
Ceiling :
>= 8 km
>= 3000ft
5 to 8 km
1000 to 3000 ft
1500m to 5 km
500 to 1000 ft
800 to 1500m
200 to 500 ft
< 800m
< 200 ft
Symbols :   Thunderstorms  Fog  Heavy snow  Heavy precipitations  Wind > 20 kt
SIGMETs :     Misc.  Thunderstorms  Icing  Turbulence  Mountain Waves  Volcanic Ashes







- Airport Elevation : 600 ft
- IATA code : VIE


LOWW - Vienna Schwechat

CURRENT METAR :
  • 100820Z 30020KT 9999 FEW034 SCT080 06/M01 Q1011 NOSIG

EXPIRED METARs :
  • 100750Z 30020G30KT 9999 FEW032 BKN080 06/M01 Q1011 NOSIG
  • 100720Z 30016KT 9999 FEW032 SCT070 BKN300 06/M01 Q1011 NOSIG
  • 100650Z 31018KT 9999 FEW038 06/M02 Q1010 NOSIG
  • 100620Z 30021KT 9999 FEW036 06/M01 Q1010 NOSIG
  • 100550Z 30017G29KT 280V340 9999 FEW036 06/M01 Q1010 NOSIG

TAF TAF LOWW
Valid from the 10 at 09:00 until the 11 at 15:00 UTC


100815Z 1009/1115 30018KT 9999 FEW030 TX07/1010Z TN02/1022Z
TEMPO 1009/1016 31023G33KT FEW030TCU SCT060 BKN180
PROB30
TEMPO 1012/1016 32025G35KT 4000 TSRASN SCT030CB BKN040
TEMPO 1102/1115 29020G30KT -RA SCT020 BKN040 OVC080
No reported NOTAMs for that airfield.



MET'MAP, your aeronautical weather chart ! - Copyright ORBIFLY December 2007 - Disclaimer

ORBIFLY MET'MAP TEAM :

Programming & Development : Alexandra Zaïnal
Concept & Development : Baudouin d'Aumeries
Co-Development & Prog : Marc-Olivier Méhu
Technical & hardware support : Manuel Goepfert

Contact : metmap@orbifly.com




SOURCES & CREDITS :

   NOAA